Time;durP1;ratioP1;P1;durP2;ratioP2;P2;SDS_P1;SDS_P2;PMS_P1;PMS_P2;Temp;Humidity;BMP_temperature;BMP_pressure;BME280_temperature;BME280_humidity;BME280_pressure;Samples;Min_cycle;Max_cycle;Signal;HPM_P1;HPM_P2
2022/06/13 00:00:45;;;;;;;6.83;4.30;;;;;;;20.27;100.00;101451.91;2066457;28;20429;-67
2022/06/13 00:01:46;;;;;;;6.43;4.40;;;;;;;20.23;100.00;101453.34;2066442;28;20208;-67
2022/06/13 00:02:47;;;;;;;5.33;4.27;;;;;;;20.20;100.00;101463.53;2066625;28;20318;-67
2022/06/13 00:03:48;;;;;;;8.57;4.47;;;;;;;20.15;100.00;101457.75;2066440;28;20212;-67
2022/06/13 00:04:48;;;;;;;7.73;4.33;;;;;;;20.07;100.00;101448.91;2066464;28;20413;-68
2022/06/13 00:05:49;;;;;;;7.17;4.43;;;;;;;20.14;100.00;101461.84;2066348;28;20190;-68
2022/06/13 00:06:49;;;;;;;7.47;4.10;;;;;;;20.15;100.00;101458.56;2066784;28;20178;-68
2022/06/13 00:07:50;;;;;;;8.67;4.40;;;;;;;20.16;100.00;101453.72;2066436;28;20183;-68
2022/06/13 00:08:50;;;;;;;6.37;4.10;;;;;;;20.13;100.00;101457.47;2066660;28;20237;-68
2022/06/13 00:09:51;;;;;;;6.93;4.60;;;;;;;20.12;100.00;101455.94;2066875;28;20208;-68
2022/06/13 00:10:51;;;;;;;8.40;4.07;;;;;;;19.25;100.00;101315.56;2066428;28;20208;-68
2022/06/13 00:11:52;;;;;;;12.40;4.53;;;;;;;20.14;100.00;101459.03;2066897;28;20186;-67
2022/06/13 00:12:53;;;;;;;8.20;4.23;;;;;;;20.06;100.00;101446.56;2066369;28;20178;-68
2022/06/13 00:13:55;;;;;;;8.47;4.40;;;;;;;20.08;100.00;101453.28;2066314;28;20189;-67
2022/06/13 00:14:56;;;;;;;7.77;4.97;;;;;;;20.08;100.00;101452.50;2066913;28;20664;-68
2022/06/13 00:15:56;;;;;;;7.80;4.90;;;;;;;20.11;100.00;101443.13;2066365;28;20896;-67
2022/06/13 00:16:57;;;;;;;7.17;4.50;;;;;;;19.84;100.00;101406.66;2066554;28;20184;-68
2022/06/13 00:17:57;;;;;;;7.70;4.20;;;;;;;20.13;100.00;101449.03;2066564;28;20641;-67
2022/06/13 00:18:58;;;;;;;6.03;4.03;;;;;;;20.15;100.00;101452.94;2066603;28;20185;-68
2022/06/13 00:19:58;;;;;;;7.17;4.30;;;;;;;20.14;100.00;101445.75;2066800;28;20213;-67
2022/06/13 00:20:59;;;;;;;9.13;4.03;;;;;;;20.12;100.00;101451.06;2066354;28;20652;-68
2022/06/13 00:21:59;;;;;;;9.30;4.70;;;;;;;20.12;100.00;101455.94;2066284;28;20181;-68
2022/06/13 00:23:00;;;;;;;6.50;3.93;;;;;;;20.16;100.00;101453.72;2066465;28;20186;-67
2022/06/13 00:24:03;;;;;;;6.93;4.33;;;;;;;19.48;100.00;101344.97;2066344;28;20209;-67
2022/06/13 00:25:04;;;;;;;6.73;4.27;;;;;;;20.18;100.00;101454.00;2066468;28;20261;-67
2022/06/13 00:26:05;;;;;;;7.37;4.50;;;;;;;20.21;100.00;101453.06;2066260;28;20428;-67
2022/06/13 00:27:05;;;;;;;9.87;4.47;;;;;;;20.20;100.00;101454.28;2066238;28;20465;-67
2022/06/13 00:28:06;;;;;;;7.53;4.13;;;;;;;20.21;100.00;101458.69;2066480;28;20173;-67
2022/06/13 00:29:06;;;;;;;7.87;4.23;;;;;;;20.24;100.00;101452.88;2066270;28;20199;-67
2022/06/13 00:30:08;;;;;;;6.67;4.03;;;;;;;20.24;100.00;101469.75;2066732;28;20204;-67
2022/06/13 00:31:09;;;;;;;8.77;4.50;;;;;;;20.19;100.00;101441.50;2066539;28;20209;-67
2022/06/13 00:32:10;;;;;;;5.30;4.10;;;;;;;20.26;100.00;101450.34;2066404;28;20429;-67
2022/06/13 00:33:10;;;;;;;5.67;3.97;;;;;;;20.29;100.00;101449.41;2066643;28;20266;-68
2022/06/13 00:34:11;;;;;;;8.17;4.20;;;;;;;20.28;100.00;101449.88;2066229;28;20260;-68
2022/06/13 00:35:11;;;;;;;8.40;4.13;;;;;;;20.22;100.00;101446.94;2066619;28;20180;-68
2022/06/13 00:36:12;;;;;;;4.47;3.83;;;;;;;20.33;100.00;101444.38;2066251;28;20228;-67
2022/06/13 00:37:13;;;;;;;6.63;3.83;;;;;;;20.28;100.00;101439.41;2066372;28;20178;-68
2022/06/13 00:38:14;;;;;;;6.53;4.23;;;;;;;20.35;100.00;101446.69;2066541;28;20186;-67
2022/06/13 00:39:15;;;;;;;8.77;4.07;;;;;;;20.35;100.00;101441.06;2066170;28;20182;-68
2022/06/13 00:40:16;;;;;;;9.63;4.57;;;;;;;19.27;100.00;101279.38;2066331;28;20424;-68
2022/06/13 00:41:23;;;;;;;10.50;4.27;;;;;;;20.38;100.00;101445.75;2066607;28;20215;-67
2022/06/13 00:42:25;;;;;;;5.20;3.97;;;;;;;20.41;100.00;101448.38;2065482;28;20447;-67
2022/06/13 00:43:26;;;;;;;7.53;4.17;;;;;;;19.54;100.00;101303.75;2066030;28;20983;-67
2022/06/13 00:44:30;;;;;;;6.13;3.80;;;;;;;20.44;100.00;101450.25;2066105;28;20779;-67
2022/06/13 00:45:33;;;;;;;4.77;3.50;;;;;;;20.46;100.00;101444.13;2066124;28;20629;-67
2022/06/13 00:46:34;;;;;;;6.13;3.87;;;;;;;20.49;100.00;101437.53;2066153;28;20429;-67
2022/06/13 00:47:38;;;;;;;7.77;3.60;;;;;;;20.47;100.00;101437.25;2066206;28;20467;-67
2022/06/13 00:48:38;;;;;;;5.67;3.57;;;;;;;20.52;100.00;101450.66;2066102;28;20412;-67
2022/06/13 00:49:44;;;;;;;6.17;3.57;;;;;;;20.46;100.00;101444.91;2066113;28;20945;-67
2022/06/13 00:50:57;;;;;;;5.80;3.37;;;;;;;20.30;100.00;101430.47;2065107;28;20252;-67
2022/06/13 00:52:18;;;;;;;8.37;3.70;;;;;;;20.46;100.00;101450.53;2066192;28;20410;-67
2022/06/13 00:53:23;;;;;;;6.10;3.70;;;;;;;19.83;100.00;101366.50;2066097;28;20798;-67
2022/06/13 00:54:24;;;;;;;5.23;3.40;;;;;;;20.51;100.00;101452.69;2066025;28;20418;-67
2022/06/13 00:55:33;;;;;;;4.87;3.70;;;;;;;20.53;100.00;101450.16;2066131;28;20428;-67
2022/06/13 00:56:36;;;;;;;9.47;3.83;;;;;;;20.54;100.00;101446.09;2066101;28;20406;-67
2022/06/13 00:57:37;;;;;;;4.83;3.50;;;;;;;20.54;100.00;101448.91;2065352;28;20423;-67
2022/06/13 00:58:43;;;;;;;6.23;3.40;;;;;;;20.53;100.00;101443.75;2065507;28;20424;-67
2022/06/13 00:59:45;;;;;;;7.10;3.27;;;;;;;20.41;100.00;101430.72;2066103;28;20406;-67
2022/06/13 01:00:50;;;;;;;9.33;3.60;;;;;;;20.55;100.00;101446.84;2065932;28;20938;-67
2022/06/13 01:01:51;;;;;;;5.33;3.53;;;;;;;20.16;100.00;101375.69;2066120;28;20827;-67
2022/06/13 01:02:53;;;;;;;5.90;3.50;;;;;;;20.56;100.00;101448.41;2066017;28;20445;-67
2022/06/13 01:03:57;;;;;;;3.93;3.40;;;;;;;20.57;100.00;101453.56;2065968;28;20849;-67
2022/06/13 01:04:59;;;;;;;5.80;3.43;;;;;;;20.55;100.00;101446.84;2065961;28;20430;-67
2022/06/13 01:06:02;;;;;;;4.97;2.87;;;;;;;20.56;100.00;101459.66;2065860;28;20463;-67
2022/06/13 01:07:04;;;;;;;8.10;3.50;;;;;;;20.51;100.00;101447.03;2066045;28;20902;-67
2022/06/13 01:08:08;;;;;;;5.27;3.60;;;;;;;20.58;100.00;101455.13;2066054;28;20413;-67
2022/06/13 01:09:11;;;;;;;7.40;3.70;;;;;;;20.57;100.00;101459.19;2066004;28;20417;-67
2022/06/13 01:11:31;;;;;;;7.43;3.53;;;;;;;19.83;100.00;101335.56;2066031;28;20800;-67
2022/06/13 01:12:35;;;;;;;6.77;3.17;;;;;;;20.53;100.00;101450.16;2065959;28;20429;-67
2022/06/13 01:14:12;;;;;;;7.50;3.63;;;;;;;20.54;100.00;101448.13;2065853;28;20214;-67
2022/06/13 01:15:42;;;;;;;7.57;3.10;;;;;;;20.49;100.00;101446.75;2050818;28;20558;-67
2022/06/13 01:17:11;;;;;;;9.03;3.13;;;;;;;20.52;100.00;101453.47;2065961;28;20437;-68
2022/06/13 01:18:40;;;;;;;6.27;3.50;;;;;;;20.49;100.00;101449.56;2061932;28;20981;-67
2022/06/13 01:20:05;;;;;;;7.97;3.53;;;;;;;20.47;100.00;101448.50;2065973;28;20445;-67
2022/06/13 01:21:12;;;;;;;6.30;3.10;;;;;;;20.43;100.00;101450.72;2066101;28;20480;-67
2022/06/13 01:22:36;;;;;;;6.63;3.20;;;;;;;20.38;100.00;101446.53;2065920;28;20405;-67
2022/06/13 01:24:14;;;;;;;6.57;3.63;;;;;;;20.38;100.00;101437.28;2066049;28;20407;-67
2022/06/13 01:25:23;;;;;;;5.77;3.07;;;;;;;20.34;100.00;101443.13;2066029;28;20845;-67
2022/06/13 01:26:26;;;;;;;7.23;3.10;;;;;;;20.32;100.00;101444.84;2065821;28;20425;-67
2022/06/13 01:27:29;;;;;;;4.90;3.30;;;;;;;20.30;100.00;101444.53;2065818;28;20556;-67
2022/06/13 01:28:36;;;;;;;7.00;3.60;;;;;;;20.31;100.00;101434.84;2065135;28;21001;-67
2022/06/13 01:29:36;;;;;;;5.70;3.10;;;;;;;20.35;100.00;101441.06;2065189;28;20484;-67
2022/06/13 01:30:55;;;;;;;6.40;3.20;;;;;;;20.36;100.00;101446.22;2065222;28;20421;-67
2022/06/13 01:32:02;;;;;;;4.00;3.50;;;;;;;19.91;100.00;101373.31;2065821;28;20222;-67
2022/06/13 01:33:05;;;;;;;5.93;3.30;;;;;;;20.45;100.00;101451.00;2065903;28;20414;-67
2022/06/13 01:34:15;;;;;;;6.13;3.27;;;;;;;20.42;100.00;101449.94;2065883;28;20835;-67
2022/06/13 01:35:21;;;;;;;14.47;3.20;;;;;;;20.44;100.00;101449.44;2065920;28;20842;-67
2022/06/13 01:36:37;;;;;;;6.10;3.23;;;;;;;20.42;100.00;101455.56;2065834;28;20404;-67
2022/06/13 01:37:56;;;;;;;4.80;3.13;;;;;;;20.41;100.00;101445.56;2065766;28;20500;-67
2022/06/13 01:39:27;;;;;;;6.87;3.10;;;;;;;20.41;100.00;101447.63;2065957;28;20492;-67
2022/06/13 01:40:54;;;;;;;4.40;3.10;;;;;;;20.39;100.00;101441.66;2065800;28;20417;-67
2022/06/13 01:42:12;;;;;;;5.53;3.20;;;;;;;20.40;100.00;101444.00;2065704;28;20417;-67
2022/06/13 01:43:26;;;;;;;7.00;3.10;;;;;;;20.29;100.00;101420.47;2065841;28;20525;-67
2022/06/13 01:44:58;;;;;;;6.07;3.27;;;;;;;20.41;100.00;101439.94;2065041;28;20426;-67
2022/06/13 01:46:11;;;;;;;7.57;2.97;;;;;;;20.38;100.00;101435.28;2065434;28;20513;-67
2022/06/13 01:47:32;;;;;;;4.80;3.30;;;;;;;20.45;100.00;101425.66;2065603;28;20492;-67
2022/06/13 01:48:42;;;;;;;8.50;3.27;;;;;;;20.43;100.00;101434.63;2065679;28;20414;-67
2022/06/13 01:50:07;;;;;;;5.93;3.70;;;;;;;20.40;100.00;101432.75;2065067;28;20422;-67
2022/06/13 01:51:34;;;;;;;3.90;3.03;;;;;;;20.33;100.00;101435.16;2064974;28;20437;-67
2022/06/13 01:52:59;;;;;;;7.53;3.00;;;;;;;20.28;100.00;101436.59;2065596;28;20497;-67
2022/06/13 01:54:24;;;;;;;9.57;3.10;;;;;;;20.21;100.00;101436.19;2065785;28;21006;-67
2022/06/13 01:55:39;;;;;;;4.93;2.73;;;;;;;20.22;100.00;101440.53;2065695;28;20920;-67
2022/06/13 01:56:45;;;;;;;3.37;2.70;;;;;;;20.18;100.00;101443.53;2065003;28;20533;-67
2022/06/13 01:57:50;;;;;;;6.67;3.00;;;;;;;20.20;100.00;101441.00;2065076;28;20397;-67
2022/06/13 01:59:04;;;;;;;4.13;2.90;;;;;;;20.23;100.00;101442.88;2065562;28;20806;-67
2022/06/13 02:00:08;;;;;;;8.40;3.40;;;;;;;20.26;100.00;101441.91;2065662;28;20402;-67
2022/06/13 02:01:23;;;;;;;7.47;3.03;;;;;;;19.67;100.00;101346.44;2065688;28;20475;-67
2022/06/13 02:02:42;;;;;;;4.93;3.20;;;;;;;20.31;100.00;101440.50;2065343;28;20408;-68
2022/06/13 02:03:59;;;;;;;10.03;3.00;;;;;;;20.24;100.00;101429.56;2065548;28;20899;-67
2022/06/13 02:05:07;;;;;;;4.83;2.90;;;;;;;20.29;100.00;101440.16;2057598;28;20403;-67
2022/06/13 02:06:21;;;;;;;4.50;2.80;;;;;;;20.26;100.00;101441.16;2057359;28;20402;-67
2022/06/13 02:07:27;;;;;;;5.27;3.17;;;;;;;20.25;100.00;101445.19;2057514;28;20453;-67
2022/06/13 02:08:37;;;;;;;4.80;2.87;;;;;;;20.26;100.00;101444.72;2057549;28;20418;-67
2022/06/13 02:09:52;;;;;;;6.70;3.17;;;;;;;20.38;100.00;101434.47;2057560;28;20411;-68
2022/06/13 02:10:58;;;;;;;5.40;3.17;;;;;;;20.39;100.00;101439.63;2057650;28;20394;-67
2022/06/13 02:11:59;;;;;;;6.37;2.80;;;;;;;20.42;100.00;101435.09;2057584;28;20395;-67
2022/06/13 02:13:18;;;;;;;7.13;2.90;;;;;;;20.39;100.00;101436.81;2057404;28;20411;-67
2022/06/13 02:14:29;;;;;;;9.50;3.30;;;;;;;20.42;100.00;101435.09;2057503;28;20178;-67
2022/06/13 02:15:37;;;;;;;5.10;2.53;;;;;;;20.40;100.00;101423.50;2057393;28;20414;-67
2022/06/13 02:16:47;;;;;;;8.70;3.00;;;;;;;20.40;100.00;101429.94;2057582;28;20398;-67
2022/06/13 02:17:55;;;;;;;5.03;2.80;;;;;;;20.00;100.00;101380.94;2057378;28;20486;-67
2022/06/13 02:19:17;;;;;;;3.90;2.30;;;;;;;20.33;100.00;101424.69;2057423;28;20402;-67
2022/06/13 02:20:23;;;;;;;3.93;2.23;;;;;;;20.33;100.00;101421.88;2057479;28;20790;-67
2022/06/13 02:21:32;;;;;;;4.73;2.40;;;;;;;19.55;100.00;101317.28;2057377;28;20784;-67
2022/06/13 02:22:41;;;;;;;7.67;2.50;;;;;;;20.26;100.00;101427.84;2057445;28;20395;-67
2022/06/13 02:23:51;;;;;;;3.50;2.30;;;;;;;20.24;100.00;101421.13;2057363;28;20410;-67
2022/06/13 02:25:00;;;;;;;3.83;2.60;;;;;;;20.23;100.00;101428.03;2057552;28;20402;-67
2022/06/13 02:26:08;;;;;;;4.53;2.37;;;;;;;20.20;100.00;101420.53;2057539;28;20752;-67
2022/06/13 02:27:12;;;;;;;5.53;2.00;;;;;;;20.10;100.00;101413.41;2057389;28;20778;-67
2022/06/13 02:28:25;;;;;;;6.50;2.43;;;;;;;20.17;100.00;101430.69;2057342;28;20418;-67
2022/06/13 02:29:35;;;;;;;7.87;2.37;;;;;;;20.12;100.00;101422.91;2057451;28;20931;-67
2022/06/13 02:30:50;;;;;;;6.43;2.40;;;;;;;20.12;100.00;101424.97;2057442;28;20402;-67
2022/06/13 02:32:06;;;;;;;7.50;2.40;;;;;;;20.10;100.00;101422.63;2057347;28;20417;-67
2022/06/13 02:33:19;;;;;;;4.97;2.60;;;;;;;20.08;100.00;101430.00;2057466;28;20904;-67
2022/06/13 02:34:28;;;;;;;8.63;2.30;;;;;;;20.04;100.00;101434.97;2057507;28;20399;-67
2022/06/13 02:35:35;;;;;;;4.80;2.20;;;;;;;19.88;100.00;101407.25;2057427;28;20408;-67
2022/06/13 02:37:01;;;;;;;6.20;2.50;;;;;;;19.76;100.00;101382.97;2057282;28;20463;-67
2022/06/13 02:38:04;;;;;;;4.47;2.20;;;;;;;19.86;100.00;101399.28;2057370;28;20414;-67
2022/06/13 02:39:10;;;;;;;8.00;2.60;;;;;;;19.94;100.00;101417.38;2057314;28;20480;-67
2022/06/13 02:40:23;;;;;;;4.90;2.40;;;;;;;19.95;100.00;101421.00;2057485;28;20910;-67
2022/06/13 02:41:30;;;;;;;3.97;2.40;;;;;;;19.79;100.00;101396.06;2057259;28;20403;-67
2022/06/13 02:42:52;;;;;;;2.80;2.47;;;;;;;19.92;100.00;101430.38;2057383;28;20776;-67
2022/06/13 02:43:59;;;;;;;6.60;2.40;;;;;;;19.92;100.00;101427.56;2057287;28;20399;-67
2022/06/13 02:45:04;;;;;;;4.67;2.10;;;;;;;19.90;100.00;101424.47;2057248;28;20407;-67
2022/06/13 02:46:16;;;;;;;7.07;2.20;;;;;;;19.89;100.00;101429.28;2057284;28;20816;-67
2022/06/13 02:47:34;;;;;;;3.63;2.30;;;;;;;19.91;100.00;101434.44;2057302;28;20505;-67
2022/06/13 02:48:42;;;;;;;7.30;2.60;;;;;;;19.58;100.00;101378.22;2057288;28;20398;-67
2022/06/13 02:49:48;;;;;;;8.53;2.70;;;;;;;19.82;100.00;101409.97;2057261;28;20485;-67
2022/06/13 02:51:07;;;;;;;6.37;2.40;;;;;;;19.91;100.00;101431.63;2057254;28;20410;-67
2022/06/13 02:52:19;;;;;;;4.30;2.30;;;;;;;19.95;100.00;101426.63;2057251;28;20497;-67
2022/06/13 02:53:40;;;;;;;4.87;2.33;;;;;;;19.98;100.00;101431.28;2057532;28;20558;-67
2022/06/13 02:54:49;;;;;;;6.63;2.23;;;;;;;19.98;100.00;101432.06;2057314;28;20406;-67
2022/06/13 02:56:08;;;;;;;4.63;2.10;;;;;;;19.96;100.00;101430.97;2057195;28;20418;-67
2022/06/13 02:57:37;;;;;;;5.00;2.60;;;;;;;19.96;100.00;101434.56;2057455;28;20399;-67
2022/06/13 02:58:58;;;;;;;3.07;2.37;;;;;;;19.92;100.00;101433.97;2057275;28;20752;-67
2022/06/13 03:00:15;;;;;;;6.33;2.50;;;;;;;20.01;100.00;101438.78;2057313;28;20775;-67
2022/06/13 03:01:32;;;;;;;7.93;2.50;;;;;;;19.85;100.00;101431.50;2057296;28;20911;-67
2022/06/13 03:02:51;;;;;;;4.77;2.30;;;;;;;19.72;100.00;101450.63;2057296;28;20406;-67
2022/06/13 03:03:51;;;;;;;6.43;2.53;;;;;;;19.69;100.00;101448.75;2057199;28;20393;-67
2022/06/13 03:05:05;;;;;;;7.17;2.53;;;;;;;19.67;100.00;101453.31;2056507;28;20997;-67
2022/06/13 03:06:14;;;;;;;8.07;2.57;;;;;;;19.68;100.00;101455.66;2056560;28;20190;-67
2022/06/13 03:07:26;;;;;;;6.30;2.60;;;;;;;19.74;100.00;101448.13;2057056;28;20457;-67
2022/06/13 03:08:48;;;;;;;7.60;2.70;;;;;;;19.76;100.00;101453.28;2057285;28;20415;-67
2022/06/13 03:09:51;;;;;;;9.30;2.50;;;;;;;19.77;100.00;101458.44;2057185;28;20552;-67
2022/06/13 03:11:05;;;;;;;4.97;2.20;;;;;;;19.86;100.00;101441.47;2057113;28;20423;-68
2022/06/13 03:12:14;;;;;;;7.13;2.60;;;;;;;19.90;100.00;101458.22;2057311;28;20963;-67
2022/06/13 03:13:31;;;;;;;7.60;2.73;;;;;;;19.91;100.00;101454.13;2057251;28;20476;-67
2022/06/13 03:14:40;;;;;;;8.03;2.73;;;;;;;19.90;100.00;101449.78;2057601;28;20424;-67
2022/06/13 03:15:54;;;;;;;6.37;2.83;;;;;;;19.93;100.00;101458.03;2058299;28;20461;-67
2022/06/13 03:17:05;;;;;;;9.13;2.80;;;;;;;19.91;100.00;101443.66;2058812;28;20405;-67
2022/06/13 03:18:15;;;;;;;4.87;2.80;;;;;;;19.75;100.00;101423.59;2058768;28;20513;-67
2022/06/13 03:19:37;;;;;;;4.63;2.73;;;;;;;19.96;100.00;101450.69;2058954;28;20410;-67
2022/06/13 03:20:48;;;;;;;6.20;2.80;;;;;;;20.02;100.00;101448.75;2058593;28;20445;-67
2022/06/13 03:21:59;;;;;;;4.80;2.50;;;;;;;20.06;100.00;101457.81;2058923;28;20926;-67
2022/06/13 03:23:32;;;;;;;6.10;2.67;;;;;;;20.07;100.00;101453.72;2058984;28;20903;-67
2022/06/13 03:24:43;;;;;;;4.17;2.30;;;;;;;20.08;100.00;101461.72;2057805;28;20443;-67
2022/06/13 03:25:56;;;;;;;5.33;3.00;;;;;;;20.11;100.00;101457.94;2058797;28;20437;-67
2022/06/13 03:27:06;;;;;;;8.27;2.73;;;;;;;20.13;100.00;101457.47;2058907;28;20394;-67
2022/06/13 03:28:16;;;;;;;8.30;2.93;;;;;;;20.14;100.00;101457.00;2058804;28;20814;-67
2022/06/13 03:29:26;;;;;;;7.47;2.53;;;;;;;19.57;100.00;101375.88;2058829;28;20424;-67
2022/06/13 03:30:30;;;;;;;6.60;3.00;;;;;;;20.16;100.00;101464.97;2058832;28;20499;-67
2022/06/13 03:31:57;;;;;;;5.57;2.90;;;;;;;20.19;100.00;101459.16;2058640;28;20512;-67
2022/06/13 03:34:32;;;;;;;6.23;3.10;;;;;;;19.66;100.00;101367.41;2058817;28;20402;-67
2022/06/13 03:35:34;;;;;;;4.90;2.70;;;;;;;19.66;100.00;101365.34;2058596;28;20878;-67
2022/06/13 03:36:59;;;;;;;8.60;3.43;;;;;;;20.27;100.00;101456.78;2058695;28;20426;-67
2022/06/13 03:38:04;;;;;;;8.20;3.30;;;;;;;20.26;100.00;101455.97;2058399;28;20429;-67
2022/06/13 03:39:16;;;;;;;7.83;3.67;;;;;;;20.29;100.00;101452.22;2058828;28;20418;-67
2022/06/13 03:40:27;;;;;;;8.83;4.03;;;;;;;20.31;100.00;101455.31;2058594;28;20476;-67
2022/06/13 03:41:33;;;;;;;10.13;4.30;;;;;;;20.33;100.00;101458.44;2058620;28;20426;-67
2022/06/13 03:42:49;;;;;;;9.53;4.03;;;;;;;20.37;100.00;101447.75;2058921;28;20405;-67
2022/06/13 03:43:58;;;;;;;10.03;4.13;;;;;;;20.40;100.00;101451.66;2058867;28;20416;-67
2022/06/13 03:45:04;;;;;;;13.10;4.27;;;;;;;20.39;100.00;101450.91;2058746;28;20464;-67
2022/06/13 03:46:33;;;;;;;13.70;4.50;;;;;;;20.42;100.00;101449.94;2058737;28;20555;-67
2022/06/13 03:47:54;;;;;;;8.17;4.17;;;;;;;20.43;100.00;101445.88;2058564;28;20457;-67
2022/06/13 03:49:00;;;;;;;13.20;4.47;;;;;;;20.28;100.00;101416.88;2058388;28;20432;-67
2022/06/13 03:50:16;;;;;;;11.77;4.23;;;;;;;20.50;100.00;101444.72;2058677;28;20777;-67
2022/06/13 03:51:25;;;;;;;9.00;4.20;;;;;;;20.50;100.00;101448.31;2058688;28;20839;-67
2022/06/13 03:52:29;;;;;;;10.50;4.40;;;;;;;20.51;100.00;101440.63;2062751;28;20926;-67
2022/06/13 03:53:45;;;;;;;10.83;3.97;;;;;;;20.53;100.00;101447.34;2066560;28;20444;-67
2022/06/13 03:54:45;;;;;;;10.60;4.07;;;;;;;20.61;100.00;101440.09;2066615;28;20406;-67
2022/06/13 03:56:02;;;;;;;10.23;3.43;;;;;;;20.63;100.00;101431.91;2066563;28;20428;-67
2022/06/13 03:57:28;;;;;;;8.07;3.73;;;;;;;20.05;100.00;101340.91;2066573;28;20166;-67
2022/06/13 03:58:40;;;;;;;8.13;3.60;;;;;;;20.65;100.00;101435.06;2066650;28;20930;-67
2022/06/13 03:59:53;;;;;;;7.97;3.07;;;;;;;20.65;100.00;101443.50;2066558;28;20410;-67
2022/06/13 04:01:02;;;;;;;6.70;3.00;;;;;;;20.64;100.00;101449.59;2066552;28;20484;-67
2022/06/13 04:02:08;;;;;;;5.67;3.00;;;;;;;20.68;100.00;101436.88;2066719;28;20401;-67
2022/06/13 04:03:10;;;;;;;7.47;3.03;;;;;;;20.72;100.00;101436.72;2066755;28;20394;-68
2022/06/13 04:04:19;;;;;;;6.33;3.00;;;;;;;20.75;100.00;101444.19;2066388;28;20477;-67
2022/06/13 04:05:44;;;;;;;6.50;3.17;;;;;;;20.36;100.00;101386.34;2066482;28;20471;-67
2022/06/13 04:06:45;;;;;;;5.27;2.97;;;;;;;20.75;100.00;101438.56;2055803;28;20488;-67
2022/06/13 04:07:46;;;;;;;5.97;2.70;;;;;;;20.78;100.00;101437.59;2066425;28;20480;-67
2022/06/13 04:08:46;;;;;;;5.70;2.70;;;;;;;20.23;100.00;101357.66;2065762;28;20589;-67
2022/06/13 04:09:51;;;;;;;4.47;2.40;;;;;;;20.84;100.00;101436.47;2065876;28;20254;-67
2022/06/13 04:11:30;;;;;;;4.93;2.30;;;;;;;20.85;100.00;101440.81;2066461;28;20644;-68
2022/06/13 04:12:49;;;;;;;7.73;2.90;;;;;;;20.86;100.00;101442.38;2063457;28;20437;-67
2022/06/13 04:14:04;;;;;;;4.30;2.40;;;;;;;20.87;100.00;101448.81;2066462;28;20862;-67
2022/06/13 04:15:17;;;;;;;3.63;2.33;;;;;;;20.87;100.00;101443.16;2066431;28;20411;-67
2022/06/13 04:16:31;;;;;;;4.10;2.40;;;;;;;20.88;100.00;101445.47;2066333;28;20409;-68
2022/06/13 04:17:56;;;;;;;4.90;2.60;;;;;;;20.92;100.00;101446.09;2066357;28;20793;-67
2022/06/13 04:18:59;;;;;;;5.53;2.50;;;;;;;20.95;100.00;101445.16;2066503;28;20407;-67
2022/06/13 04:20:24;;;;;;;6.60;3.07;;;;;;;20.99;100.00;101448.53;2066442;28;20414;-67
2022/06/13 04:21:37;;;;;;;6.17;2.67;;;;;;;20.96;100.00;101452.31;2066357;28;20414;-68
2022/06/13 04:22:45;;;;;;;7.23;2.60;;;;;;;21.03;100.00;101448.34;2066363;28;20420;-67
2022/06/13 04:24:08;;;;;;;3.73;2.60;;;;;;;21.01;100.00;101440.38;2066416;28;20782;-67
2022/06/13 04:25:29;;;;;;;6.00;2.90;;;;;;;21.04;100.00;101447.09;2066133;28;20409;-67
2022/06/13 04:26:42;;;;;;;6.27;2.80;;;;;;;21.06;100.00;101441.72;2066358;28;20927;-68
2022/06/13 04:27:48;;;;;;;7.13;2.70;;;;;;;21.10;100.00;101448.75;2066235;28;20457;-67
2022/06/13 04:29:07;;;;;;;3.33;2.90;;;;;;;21.13;100.00;101439.31;2066263;28;20412;-67
2022/06/13 04:30:15;;;;;;;4.60;2.90;;;;;;;21.12;100.00;101437.75;2066161;28;20408;-67
2022/06/13 04:31:18;;;;;;;6.37;2.80;;;;;;;21.16;100.00;101440.38;2066401;28;20401;-67
2022/06/13 04:32:24;;;;;;;3.13;2.80;;;;;;;21.21;100.00;101448.94;2065552;28;20987;-67
2022/06/13 04:33:50;;;;;;;5.53;2.90;;;;;;;21.25;100.00;101437.47;2065607;28;20421;-67
2022/06/13 04:34:53;;;;;;;5.50;2.77;;;;;;;21.29;100.00;101443.69;2066129;28;20398;-67
2022/06/13 04:35:54;;;;;;;6.10;3.47;;;;;;;21.30;100.00;101433.97;2065876;28;20483;-67
2022/06/13 04:36:55;;;;;;;5.33;3.23;;;;;;;21.35;100.00;101441.75;2066098;28;20421;-68
2022/06/13 04:37:57;;;;;;;6.30;3.10;;;;;;;21.34;100.00;101438.13;2065457;28;20205;-68
2022/06/13 04:39:01;;;;;;;6.03;3.00;;;;;;;21.18;100.00;101409.69;2065409;28;20531;-67
2022/06/13 04:40:05;;;;;;;6.47;3.00;;;;;;;21.44;100.00;101445.22;2066066;28;20840;-67
2022/06/13 04:41:09;;;;;;;6.00;3.40;;;;;;;21.44;100.00;101436.00;2065625;28;20461;-68
2022/06/13 04:42:12;;;;;;;4.03;3.37;;;;;;;21.55;100.00;101442.59;2066080;28;20424;-68
2022/06/13 04:43:17;;;;;;;5.83;3.30;;;;;;;21.56;100.00;101449.81;2065773;28;20552;-67
2022/06/13 04:44:24;;;;;;;5.23;3.10;;;;;;;21.61;100.00;101443.47;2065981;28;20429;-68
2022/06/13 04:45:48;;;;;;;5.13;3.10;;;;;;;21.63;100.00;101445.78;2065952;28;20481;-67
2022/06/13 04:46:50;;;;;;;6.07;3.20;;;;;;;21.48;100.00;101428.09;2066105;28;20864;-67
2022/06/13 04:47:53;;;;;;;5.33;3.60;;;;;;;21.69;100.00;101444.66;2064836;28;20453;-68
2022/06/13 04:48:56;;;;;;;4.93;3.37;;;;;;;21.35;100.00;101388.94;2057126;28;20209;-68
2022/06/13 04:49:59;;;;;;;6.27;3.50;;;;;;;21.74;100.00;101448.84;2064581;28;20430;-68
2022/06/13 04:51:11;;;;;;;7.07;3.60;;;;;;;21.80;100.00;101449.69;2064703;28;20449;-68
2022/06/13 04:52:30;;;;;;;4.63;3.20;;;;;;;21.76;100.00;101447.09;2065244;28;20165;-68
2022/06/13 04:53:38;;;;;;;7.40;3.60;;;;;;;21.77;100.00;101450.66;2064695;28;20433;-67
2022/06/13 04:55:06;;;;;;;6.43;3.60;;;;;;;21.46;100.00;101411.69;2057546;28;20425;-68
2022/06/13 04:56:07;;;;;;;5.93;3.60;;;;;;;21.83;100.00;101457.94;2059348;28;20432;-68
2022/06/13 04:57:13;;;;;;;8.23;4.43;;;;;;;21.76;100.00;101443.47;2065763;28;20468;-68
2022/06/13 04:58:23;;;;;;;18.23;16.33;;;;;;;20.94;100.00;101313.94;2065488;28;20242;-67
2022/06/13 04:59:24;;;;;;;8.27;7.20;;;;;;;21.93;100.00;101448.09;2065616;28;20162;-67
2022/06/13 05:00:24;;;;;;;5.77;5.13;;;;;;;21.99;100.00;101453.81;2065712;28;20189;-67
2022/06/13 05:01:33;;;;;;;9.03;5.27;;;;;;;22.00;100.00;101455.38;2064493;28;20217;-68
2022/06/13 05:02:42;;;;;;;6.60;4.10;;;;;;;22.05;100.00;101452.63;2065921;28;20653;-68
2022/06/13 05:03:43;;;;;;;6.20;3.17;;;;;;;21.20;100.00;101322.59;2065075;28;20460;-68
2022/06/13 05:04:45;;;;;;;3.77;3.33;;;;;;;22.00;100.00;101452.56;2065275;28;20545;-69
2022/06/13 05:05:50;;;;;;;7.00;3.90;;;;;;;22.03;100.00;101449.53;2065746;28;20464;-68
2022/06/13 05:06:53;;;;;;;5.80;3.73;;;;;;;21.97;100.00;101440.22;2065753;28;20418;-67
2022/06/13 05:07:54;;;;;;;6.70;3.60;;;;;;;22.10;100.00;101449.09;2065740;28;20912;-68
2022/06/13 05:09:08;;;;;;;6.83;3.80;;;;;;;22.13;100.00;101453.00;2065735;28;20414;-68
2022/06/13 05:10:17;;;;;;;6.23;3.50;;;;;;;22.18;100.00;101441.78;2061421;28;20197;-68
2022/06/13 05:11:25;;;;;;;5.70;3.43;;;;;;;22.08;100.00;101436.75;2065904;28;20406;-68
2022/06/13 05:12:31;;;;;;;9.37;3.80;;;;;;;21.40;100.00;101314.19;2064623;28;20413;-67
2022/06/13 05:13:32;;;;;;;8.43;3.60;;;;;;;22.22;100.00;101441.56;2065105;28;20500;-67
2022/06/13 05:14:56;;;;;;;5.90;3.30;;;;;;;22.22;100.00;101438.75;2065589;28;20425;-67
2022/06/13 05:16:12;;;;;;;4.77;3.37;;;;;;;22.22;100.00;101442.34;2062855;28;20183;-67
2022/06/13 05:17:33;;;;;;;5.50;3.50;;;;;;;22.25;100.00;101441.34;2064562;28;20425;-67
2022/06/13 05:18:44;;;;;;;4.73;3.43;;;;;;;22.30;100.00;101435.00;2048115;29;20441;-67
2022/06/13 05:19:59;;;;;;;5.67;3.80;;;;;;;22.29;100.00;101436.28;2064872;28;20202;-67
2022/06/13 05:21:34;;;;;;;5.23;3.93;;;;;;;22.38;100.00;101443.84;2062765;28;20389;-67
2022/06/13 05:23:05;;;;;;;5.17;3.73;;;;;;;22.43;100.00;101443.91;2064345;28;20197;-67
2022/06/13 05:24:40;;;;;;;7.17;3.80;;;;;;;22.47;100.00;101438.84;2065416;28;20167;-67